createdAt,value
2023-12-30T00:00:41.043Z,9.29
2023-12-30T00:01:41.064Z,9.32
2023-12-30T00:02:41.057Z,9.29
2023-12-30T00:03:41.015Z,9.36
2023-12-30T00:04:41.131Z,9.34
2023-12-30T00:05:41.024Z,9.33
2023-12-30T00:06:40.971Z,9.33
2023-12-30T00:07:40.988Z,9.32
2023-12-30T00:08:40.925Z,9.30
2023-12-30T00:09:40.917Z,9.36
2023-12-30T00:10:40.901Z,9.37
2023-12-30T00:11:40.944Z,9.37
2023-12-30T00:12:40.880Z,9.41
2023-12-30T00:13:40.913Z,9.40
2023-12-30T00:14:40.860Z,9.37
2023-12-30T00:15:40.850Z,9.41
2023-12-30T00:16:40.996Z,9.37
2023-12-30T00:17:40.839Z,9.42
2023-12-30T00:18:41.002Z,9.42
2023-12-30T00:19:40.831Z,9.41
2023-12-30T00:20:40.804Z,9.42
2023-12-30T00:21:40.824Z,9.41
2023-12-30T00:22:40.780Z,9.42
2023-12-30T00:23:45.618Z,9.42
2023-12-30T00:24:41.759Z,9.42
2023-12-30T00:25:40.745Z,9.34
2023-12-30T00:26:40.744Z,9.37
2023-12-30T00:27:40.745Z,9.44
2023-12-30T00:28:40.720Z,9.41
2023-12-30T00:29:40.694Z,9.36
2023-12-30T00:30:40.707Z,9.41
2023-12-30T00:31:40.720Z,9.36
2023-12-30T00:32:40.752Z,9.33
2023-12-30T00:33:40.715Z,9.36
2023-12-30T00:34:40.716Z,9.29
2023-12-30T00:35:40.632Z,9.30
2023-12-30T00:36:40.627Z,9.33
2023-12-30T00:37:40.658Z,9.36
2023-12-30T00:38:40.599Z,9.19
2023-12-30T00:39:40.614Z,9.33
2023-12-30T00:40:40.610Z,9.36
2023-12-30T00:41:40.578Z,9.32
2023-12-30T00:42:40.586Z,9.24
2023-12-30T00:43:40.558Z,9.23
2023-12-30T00:44:40.571Z,9.33
2023-12-30T00:45:40.576Z,9.33
2023-12-30T00:46:40.973Z,9.23
2023-12-30T00:47:40.566Z,9.27
2023-12-30T00:48:40.569Z,9.34
2023-12-30T00:49:40.565Z,9.24
2023-12-30T00:50:40.513Z,9.24
2023-12-30T00:51:40.467Z,9.19
2023-12-30T00:52:40.495Z,9.24
2023-12-30T00:53:40.433Z,9.19
2023-12-30T00:54:44.998Z,9.22
2023-12-30T00:55:41.426Z,9.22
2023-12-30T00:56:40.416Z,9.27
2023-12-30T00:57:40.415Z,9.30
2023-12-30T00:58:40.405Z,9.30
2023-12-30T00:59:40.380Z,9.29
2023-12-30T01:00:40.482Z,9.26
2023-12-30T01:01:40.444Z,9.29
2023-12-30T01:02:40.405Z,9.24
2023-12-30T01:03:40.719Z,9.32
2023-12-30T01:04:40.410Z,9.26
2023-12-30T01:05:40.308Z,9.32
2023-12-30T01:06:40.323Z,9.30
2023-12-30T01:07:40.306Z,9.36
2023-12-30T01:08:40.347Z,9.36
2023-12-30T01:09:40.266Z,9.36
2023-12-30T01:10:40.259Z,9.19
2023-12-30T01:11:40.235Z,9.30
2023-12-30T01:12:40.236Z,9.33
2023-12-30T01:13:40.274Z,9.26
2023-12-30T01:14:40.255Z,9.27
2023-12-30T01:15:40.201Z,9.34
2023-12-30T01:16:40.183Z,9.33
2023-12-30T01:17:40.290Z,9.37
2023-12-30T01:18:40.340Z,9.32
2023-12-30T01:19:40.225Z,9.26
2023-12-30T01:20:40.137Z,9.33
2023-12-30T01:21:40.149Z,9.30
2023-12-30T01:22:40.154Z,9.33
2023-12-30T01:23:40.114Z,9.40
2023-12-30T01:24:40.129Z,9.26
2023-12-30T01:25:40.114Z,9.37
2023-12-30T01:26:40.090Z,9.33
2023-12-30T01:27:40.062Z,9.44
2023-12-30T01:28:40.081Z,9.33
2023-12-30T01:29:40.079Z,9.41
2023-12-30T01:30:40.101Z,9.32
2023-12-30T01:31:40.079Z,9.37
2023-12-30T01:32:40.085Z,9.36
2023-12-30T01:33:40.134Z,9.29
2023-12-30T01:34:40.205Z,9.32
2023-12-30T01:35:40.059Z,9.27
2023-12-30T01:36:40.016Z,9.32
2023-12-30T01:37:40.004Z,9.29
2023-12-30T01:38:40.017Z,9.33
2023-12-30T01:39:39.974Z,9.27
2023-12-30T01:40:40.029Z,9.30
2023-12-30T01:41:39.953Z,9.27
2023-12-30T01:42:39.908Z,9.27
2023-12-30T01:43:39.947Z,9.29
2023-12-30T01:44:39.942Z,9.18
2023-12-30T01:45:39.972Z,9.18
2023-12-30T01:46:39.872Z,9.12
2023-12-30T01:47:39.979Z,9.18
2023-12-30T01:48:40.034Z,9.14
2023-12-30T01:49:39.862Z,9.18
2023-12-30T01:50:39.888Z,9.22
2023-12-30T01:51:39.862Z,9.23
2023-12-30T01:52:39.817Z,9.19
2023-12-30T01:53:39.881Z,9.16
2023-12-30T01:54:39.813Z,9.19
2023-12-30T01:55:39.794Z,9.16
2023-12-30T01:56:39.759Z,9.16
2023-12-30T01:57:39.763Z,9.16
2023-12-30T01:58:39.734Z,9.08
2023-12-30T01:59:39.744Z,9.09
2023-12-30T02:00:39.731Z,9.08
2023-12-30T02:01:39.817Z,9.11
2023-12-30T02:02:39.685Z,9.09
2023-12-30T02:03:39.706Z,9.12
2023-12-30T02:04:39.760Z,9.11
2023-12-30T02:05:39.745Z,9.09
2023-12-30T02:06:39.646Z,9.08
2023-12-30T02:07:39.728Z,9.12
2023-12-30T02:08:39.622Z,9.09
2023-12-30T02:09:39.654Z,9.08
2023-12-30T02:10:39.669Z,9.08
2023-12-30T02:11:39.738Z,9.14
2023-12-30T02:12:39.589Z,9.11
2023-12-30T02:13:39.600Z,9.14
2023-12-30T02:14:39.556Z,9.11
2023-12-30T02:15:39.564Z,9.14
2023-12-30T02:16:39.558Z,9.11
2023-12-30T02:17:39.599Z,9.12
2023-12-30T02:18:39.687Z,9.08
2023-12-30T02:19:39.555Z,9.14
2023-12-30T02:20:39.533Z,9.08
2023-12-30T02:21:39.483Z,9.08
2023-12-30T02:22:39.471Z,9.09
2023-12-30T02:23:39.473Z,9.08
2023-12-30T02:24:39.447Z,9.09
2023-12-30T02:25:39.480Z,9.09
2023-12-30T02:26:39.478Z,9.11
2023-12-30T02:27:39.427Z,9.08
2023-12-30T02:28:39.403Z,9.11
2023-12-30T02:29:39.408Z,9.11
2023-12-30T02:30:39.441Z,9.09
2023-12-30T02:31:39.451Z,9.09
2023-12-30T02:32:39.407Z,9.19
2023-12-30T02:33:39.389Z,9.12
2023-12-30T02:34:39.360Z,9.08
2023-12-30T02:35:39.362Z,9.09
2023-12-30T02:36:39.315Z,9.16
2023-12-30T02:37:39.432Z,9.14
2023-12-30T02:38:39.310Z,9.12
2023-12-30T02:39:39.298Z,9.11
2023-12-30T02:40:39.314Z,9.12
2023-12-30T02:41:39.264Z,9.11
2023-12-30T02:42:39.341Z,9.19
2023-12-30T02:43:39.303Z,9.12
2023-12-30T02:44:39.230Z,9.24
2023-12-30T02:45:39.223Z,9.22
2023-12-30T02:46:39.302Z,9.14
2023-12-30T02:47:39.267Z,9.16
2023-12-30T02:48:39.199Z,9.19
2023-12-30T02:49:39.200Z,9.27
2023-12-30T02:50:39.183Z,9.26
2023-12-30T02:51:39.165Z,9.12
2023-12-30T02:52:39.202Z,9.26
2023-12-30T02:53:39.129Z,9.16
2023-12-30T02:54:39.112Z,9.27
2023-12-30T02:55:39.138Z,9.32
2023-12-30T02:56:39.130Z,9.24
2023-12-30T02:57:48.516Z,9.30
2023-12-30T02:58:40.143Z,9.30
2023-12-30T02:59:39.081Z,9.32
2023-12-30T03:00:39.117Z,9.37
2023-12-30T03:01:39.166Z,9.29
2023-12-30T03:02:39.296Z,9.34
2023-12-30T03:03:39.050Z,9.41
2023-12-30T03:04:39.082Z,9.36
2023-12-30T03:05:39.044Z,9.32
2023-12-30T03:06:38.988Z,9.30
2023-12-30T03:07:39.055Z,9.30
2023-12-30T03:08:38.968Z,9.33
2023-12-30T03:09:38.962Z,9.32
2023-12-30T03:10:39.060Z,9.40
2023-12-30T03:11:38.935Z,9.33
2023-12-30T03:12:38.956Z,9.29
2023-12-30T03:13:38.983Z,9.29
2023-12-30T03:14:39.000Z,9.29
2023-12-30T03:15:38.909Z,9.26
2023-12-30T03:16:38.882Z,9.30
2023-12-30T03:17:38.963Z,9.36
2023-12-30T03:18:38.900Z,9.32
2023-12-30T03:19:38.893Z,9.30
2023-12-30T03:20:38.880Z,9.33
2023-12-30T03:21:38.827Z,9.37
2023-12-30T03:22:38.821Z,9.34
2023-12-30T03:23:38.810Z,9.33
2023-12-30T03:24:38.793Z,9.40
2023-12-30T03:25:38.882Z,9.30
2023-12-30T03:26:38.801Z,9.30
2023-12-30T03:27:38.800Z,9.29
2023-12-30T03:28:38.825Z,9.33
2023-12-30T03:29:38.751Z,9.36
2023-12-30T03:30:38.803Z,9.29
2023-12-30T03:31:38.784Z,9.33
2023-12-30T03:32:38.773Z,9.30
2023-12-30T03:33:38.722Z,9.24
2023-12-30T03:34:38.862Z,9.29
2023-12-30T03:35:38.683Z,9.30
2023-12-30T03:36:38.685Z,9.30
2023-12-30T03:37:38.696Z,9.29
2023-12-30T03:38:38.640Z,9.29
2023-12-30T03:39:38.649Z,9.33
2023-12-30T03:40:38.705Z,9.27
2023-12-30T03:41:38.633Z,9.22
2023-12-30T03:42:38.644Z,9.29
2023-12-30T03:43:38.620Z,9.22
2023-12-30T03:44:38.580Z,9.15
2023-12-30T03:45:38.573Z,9.23
2023-12-30T03:46:38.617Z,9.27
2023-12-30T03:47:38.594Z,9.29
2023-12-30T03:48:38.751Z,9.24
2023-12-30T03:49:38.666Z,9.24
2023-12-30T03:50:38.667Z,9.36
2023-12-30T03:51:38.505Z,9.27
2023-12-30T03:52:38.533Z,9.23
2023-12-30T03:53:38.481Z,9.18
2023-12-30T03:54:38.478Z,9.22
2023-12-30T03:55:38.731Z,9.22
2023-12-30T03:56:38.470Z,9.15
2023-12-30T03:57:38.471Z,9.19
2023-12-30T03:58:38.469Z,9.11
2023-12-30T03:59:38.421Z,9.22
2023-12-30T04:00:38.504Z,9.14
2023-12-30T04:01:38.479Z,9.18
2023-12-30T04:02:38.440Z,9.14
2023-12-30T04:03:38.375Z,9.11
2023-12-30T04:04:38.399Z,9.08
2023-12-30T04:05:38.427Z,9.12
2023-12-30T04:06:38.380Z,9.11
2023-12-30T04:07:38.359Z,9.06
2023-12-30T04:08:38.315Z,9.09
2023-12-30T04:09:38.328Z,9.11
2023-12-30T04:10:38.337Z,9.14
2023-12-30T04:11:38.328Z,9.09
2023-12-30T04:12:38.299Z,9.12
2023-12-30T04:13:38.327Z,9.08
2023-12-30T04:14:38.260Z,9.12
2023-12-30T04:15:38.435Z,9.12
2023-12-30T04:16:38.317Z,9.08
2023-12-30T04:17:38.339Z,9.11
2023-12-30T04:18:38.308Z,9.09
2023-12-30T04:19:38.245Z,9.06
2023-12-30T04:20:38.203Z,9.14
2023-12-30T04:21:38.205Z,9.12
2023-12-30T04:22:38.167Z,9.11
2023-12-30T04:23:38.176Z,9.06
2023-12-30T04:24:38.145Z,9.03
2023-12-30T04:25:38.205Z,9.09
2023-12-30T04:26:38.120Z,9.04
2023-12-30T04:27:38.140Z,9.06
2023-12-30T04:28:38.158Z,9.08
2023-12-30T04:29:38.094Z,9.06
2023-12-30T04:30:38.144Z,9.09
2023-12-30T04:31:38.099Z,8.89
2023-12-30T04:32:38.158Z,9.03
2023-12-30T04:33:38.121Z,9.09
2023-12-30T04:34:38.056Z,8.99
2023-12-30T04:35:38.025Z,9.06
2023-12-30T04:36:38.014Z,8.96
2023-12-30T04:37:38.074Z,9.01
2023-12-30T04:38:37.987Z,9.12
2023-12-30T04:39:38.001Z,9.03
2023-12-30T04:40:38.025Z,9.12
2023-12-30T04:41:37.971Z,9.06
2023-12-30T04:42:37.991Z,8.99
2023-12-30T04:43:38.051Z,8.93
2023-12-30T04:44:37.963Z,8.93
2023-12-30T04:45:37.926Z,8.93
2023-12-30T04:46:37.957Z,8.93
2023-12-30T04:47:37.929Z,8.93
2023-12-30T04:48:37.911Z,9.01
2023-12-30T04:49:38.103Z,8.96
2023-12-30T04:50:37.875Z,9.01
2023-12-30T04:51:37.874Z,8.85
2023-12-30T04:52:37.860Z,8.89
2023-12-30T04:53:37.833Z,8.88
2023-12-30T04:54:37.817Z,8.89
2023-12-30T04:55:37.930Z,8.88
2023-12-30T04:56:37.856Z,8.88
2023-12-30T04:57:37.788Z,8.90
2023-12-30T04:58:37.785Z,8.88
2023-12-30T04:59:37.764Z,8.88
2023-12-30T05:00:37.756Z,8.93
2023-12-30T05:01:37.854Z,8.83
2023-12-30T05:02:37.760Z,8.78
2023-12-30T05:03:37.816Z,8.85
2023-12-30T05:04:37.736Z,8.83
2023-12-30T05:05:37.762Z,8.81
2023-12-30T05:06:37.708Z,8.78
2023-12-30T05:07:37.742Z,8.85
2023-12-30T05:08:37.666Z,8.78
2023-12-30T05:09:37.663Z,8.75
2023-12-30T05:10:37.779Z,8.81
2023-12-30T05:11:37.647Z,8.81
2023-12-30T05:12:37.741Z,8.81
2023-12-30T05:13:37.671Z,8.80
2023-12-30T05:14:37.601Z,8.83
2023-12-30T05:15:37.610Z,8.89
2023-12-30T05:16:37.662Z,8.75
2023-12-30T05:17:37.641Z,8.81
2023-12-30T05:18:37.700Z,8.86
2023-12-30T05:19:37.629Z,8.80
2023-12-30T05:20:37.577Z,8.88
2023-12-30T05:21:39.043Z,8.85
2023-12-30T05:22:37.571Z,8.88
2023-12-30T05:23:37.508Z,8.88
2023-12-30T05:24:37.487Z,8.85
2023-12-30T05:25:37.555Z,8.86
2023-12-30T05:26:37.494Z,8.72
2023-12-30T05:27:37.473Z,8.70
2023-12-30T05:28:37.503Z,8.77
2023-12-30T05:29:37.455Z,8.74
2023-12-30T05:30:37.473Z,8.71
2023-12-30T05:31:37.463Z,8.78
2023-12-30T05:32:37.495Z,8.74
2023-12-30T05:33:37.441Z,8.81
2023-12-30T05:34:37.514Z,8.75
2023-12-30T05:35:37.371Z,8.78
2023-12-30T05:36:37.366Z,8.74
2023-12-30T05:37:37.459Z,8.74
2023-12-30T05:38:37.368Z,8.74
2023-12-30T05:39:37.347Z,8.74
2023-12-30T05:40:37.441Z,8.75
2023-12-30T05:41:37.307Z,8.75
2023-12-30T05:42:37.349Z,8.70
2023-12-30T05:43:37.327Z,8.77
2023-12-30T05:44:37.275Z,8.80
2023-12-30T05:45:37.298Z,8.77
2023-12-30T05:46:37.319Z,8.85
2023-12-30T05:47:37.274Z,8.85
2023-12-30T05:48:37.345Z,8.75
2023-12-30T05:49:37.277Z,8.80
2023-12-30T05:50:37.247Z,8.74
2023-12-30T05:51:37.192Z,8.83
2023-12-30T05:52:37.306Z,8.81
2023-12-30T05:53:37.177Z,8.78
2023-12-30T05:54:37.186Z,8.80
2023-12-30T05:55:37.174Z,8.85
2023-12-30T05:56:37.154Z,8.78
2023-12-30T05:57:37.164Z,8.81
2023-12-30T05:58:37.173Z,8.80
2023-12-30T05:59:37.116Z,8.85
2023-12-30T06:00:37.117Z,8.77
2023-12-30T06:01:37.187Z,8.72
2023-12-30T06:02:37.085Z,8.75
2023-12-30T06:03:37.170Z,8.80
2023-12-30T06:04:37.077Z,8.72
2023-12-30T06:05:37.116Z,8.70
2023-12-30T06:06:37.026Z,8.72
2023-12-30T06:07:37.092Z,8.70
2023-12-30T06:08:37.041Z,8.65
2023-12-30T06:09:37.013Z,8.70
2023-12-30T06:10:37.266Z,8.71
2023-12-30T06:11:36.982Z,8.63
2023-12-30T06:12:36.974Z,8.57
2023-12-30T06:13:37.097Z,8.60
2023-12-30T06:14:36.949Z,8.59
2023-12-30T06:15:36.937Z,8.60
2023-12-30T06:16:36.972Z,8.59
2023-12-30T06:17:36.974Z,8.57
2023-12-30T06:18:37.169Z,8.59
2023-12-30T06:19:36.909Z,8.57
2023-12-30T06:20:36.912Z,8.44
2023-12-30T06:21:36.876Z,8.50
2023-12-30T06:22:36.890Z,8.42
2023-12-30T06:23:36.866Z,8.38
2023-12-30T06:24:36.842Z,8.37
2023-12-30T06:25:36.909Z,8.38
2023-12-30T06:26:36.896Z,8.42
2023-12-30T06:27:36.817Z,8.41
2023-12-30T06:28:36.857Z,8.32
2023-12-30T06:29:36.775Z,8.31
2023-12-30T06:30:36.896Z,8.39
2023-12-30T06:31:36.827Z,8.34
2023-12-30T06:32:36.871Z,8.32
2023-12-30T06:33:36.857Z,8.31
2023-12-30T06:34:36.940Z,8.32
2023-12-30T06:35:36.756Z,8.32
2023-12-30T06:36:36.712Z,8.35
2023-12-30T06:37:36.722Z,8.28
2023-12-30T06:38:36.793Z,8.16
2023-12-30T06:39:36.695Z,8.24
2023-12-30T06:40:36.746Z,8.14
2023-12-30T06:41:36.686Z,8.10
2023-12-30T06:42:36.758Z,8.10
2023-12-30T06:43:36.700Z,8.12
2023-12-30T06:44:36.663Z,8.06
2023-12-30T06:45:36.664Z,8.09
2023-12-30T06:46:36.748Z,8.02
2023-12-30T06:47:36.662Z,7.98
2023-12-30T06:48:36.642Z,8.02
2023-12-30T06:49:36.624Z,8.01
2023-12-30T06:50:36.666Z,7.99
2023-12-30T06:51:36.543Z,8.02
2023-12-30T06:52:36.654Z,7.99
2023-12-30T06:53:36.526Z,7.98
2023-12-30T06:54:36.517Z,7.99
2023-12-30T06:55:42.020Z,7.86
2023-12-30T06:56:37.515Z,7.94
2023-12-30T06:57:36.496Z,7.88
2023-12-30T06:58:36.550Z,7.87
2023-12-30T06:59:36.535Z,7.99
2023-12-30T07:00:36.500Z,7.83
2023-12-30T07:01:36.501Z,7.91
2023-12-30T07:02:36.428Z,7.87
2023-12-30T07:03:36.520Z,7.84
2023-12-30T07:04:36.494Z,7.94
2023-12-30T07:05:36.502Z,7.84
2023-12-30T07:06:36.382Z,7.88
2023-12-30T07:07:36.456Z,7.87
2023-12-30T07:08:36.373Z,7.83
2023-12-30T07:09:36.364Z,7.88
2023-12-30T07:10:36.551Z,7.88
2023-12-30T07:11:36.341Z,7.86
2023-12-30T07:12:36.327Z,7.81
2023-12-30T07:13:36.324Z,7.77
2023-12-30T07:14:36.332Z,7.86
2023-12-30T07:15:36.315Z,7.91
2023-12-30T07:16:36.341Z,7.87
2023-12-30T07:17:36.274Z,7.76
2023-12-30T07:18:36.313Z,7.76
2023-12-30T07:19:36.291Z,7.76
2023-12-30T07:20:36.279Z,7.83
2023-12-30T07:21:36.234Z,7.83
2023-12-30T07:22:36.250Z,7.81
2023-12-30T07:23:36.207Z,7.83
2023-12-30T07:24:36.200Z,7.76
2023-12-30T07:25:36.219Z,7.71
2023-12-30T07:26:36.204Z,7.76
2023-12-30T07:27:36.214Z,7.74
2023-12-30T07:28:36.273Z,7.80
2023-12-30T07:29:36.138Z,7.74
2023-12-30T07:30:36.269Z,7.66
2023-12-30T07:31:36.165Z,7.68
2023-12-30T07:32:36.339Z,7.77
2023-12-30T07:33:36.178Z,7.76
2023-12-30T07:34:36.112Z,7.71
2023-12-30T07:35:36.184Z,7.68
2023-12-30T07:36:36.073Z,7.78
2023-12-30T07:37:37.070Z,7.73
2023-12-30T07:38:36.676Z,7.71
2023-12-30T07:39:36.116Z,7.62
2023-12-30T07:40:36.168Z,7.76
2023-12-30T07:41:36.048Z,7.68
2023-12-30T07:42:36.001Z,7.74
2023-12-30T07:43:36.005Z,7.71
2023-12-30T07:44:35.980Z,7.74
2023-12-30T07:45:35.983Z,7.77
2023-12-30T07:46:36.059Z,7.76
2023-12-30T07:47:35.962Z,7.66
2023-12-30T07:48:35.992Z,7.69
2023-12-30T07:49:35.992Z,7.78
2023-12-30T07:50:35.947Z,7.76
2023-12-30T07:51:35.984Z,7.73
2023-12-30T07:52:35.952Z,7.76
2023-12-30T07:53:35.884Z,7.74
2023-12-30T07:54:35.869Z,7.76
2023-12-30T07:55:35.994Z,7.80
2023-12-30T07:56:35.878Z,7.66
2023-12-30T07:57:35.848Z,7.78
2023-12-30T07:58:35.971Z,7.76
2023-12-30T07:59:35.821Z,7.78
2023-12-30T08:00:35.838Z,7.76
2023-12-30T08:01:35.943Z,7.77
2023-12-30T08:02:35.843Z,7.74
2023-12-30T08:03:35.803Z,7.74
2023-12-30T08:04:35.849Z,7.66
2023-12-30T08:05:35.781Z,7.74
2023-12-30T08:06:35.814Z,7.71
2023-12-30T08:07:35.754Z,7.74
2023-12-30T08:08:35.721Z,7.77
2023-12-30T08:09:35.713Z,7.80
2023-12-30T08:10:35.778Z,7.77
2023-12-30T08:11:45.878Z,7.80
2023-12-30T08:12:36.697Z,7.78
2023-12-30T08:13:35.837Z,7.69
2023-12-30T08:14:35.675Z,7.78
2023-12-30T08:15:35.662Z,7.81
2023-12-30T08:16:35.732Z,7.78
2023-12-30T08:17:35.875Z,7.80
2023-12-30T08:18:35.718Z,7.80
2023-12-30T08:19:35.660Z,7.78
2023-12-30T08:20:35.596Z,7.80
2023-12-30T08:21:35.637Z,7.71
2023-12-30T08:22:35.639Z,7.74
2023-12-30T08:23:35.556Z,7.78
2023-12-30T08:24:35.544Z,7.78
2023-12-30T08:25:35.641Z,7.80
2023-12-30T08:26:35.532Z,7.74
2023-12-30T08:27:35.536Z,7.77
2023-12-30T08:28:35.523Z,7.83
2023-12-30T08:29:35.521Z,7.77
2023-12-30T08:30:35.502Z,7.91
2023-12-30T08:31:35.540Z,7.88
2023-12-30T08:32:35.498Z,7.92
2023-12-30T08:33:35.502Z,7.88
2023-12-30T08:34:35.478Z,7.86
2023-12-30T08:35:35.430Z,7.91
2023-12-30T08:36:35.435Z,7.88
2023-12-30T08:37:35.590Z,7.88
2023-12-30T08:38:35.400Z,7.88
2023-12-30T08:39:35.406Z,7.87
2023-12-30T08:40:37.066Z,7.87
2023-12-30T08:41:35.381Z,7.92
2023-12-30T08:42:35.451Z,7.96
2023-12-30T08:43:35.364Z,7.94
2023-12-30T08:44:35.353Z,8.02
2023-12-30T08:45:35.324Z,7.92
2023-12-30T08:46:35.367Z,7.98
2023-12-30T08:47:35.365Z,7.94
2023-12-30T08:48:35.392Z,7.96
2023-12-30T08:49:35.348Z,8.01
2023-12-30T08:50:35.307Z,7.98
2023-12-30T08:51:35.248Z,7.98
2023-12-30T08:52:35.350Z,7.96
2023-12-30T08:53:35.727Z,7.99
2023-12-30T08:54:35.280Z,7.95
2023-12-30T08:55:35.262Z,7.94
2023-12-30T08:56:35.506Z,8.05
2023-12-30T08:57:35.188Z,8.01
2023-12-30T08:58:37.279Z,8.01
2023-12-30T08:59:35.224Z,7.91
2023-12-30T09:00:35.224Z,7.99
2023-12-30T09:01:35.201Z,7.99
2023-12-30T09:02:35.140Z,7.98
2023-12-30T09:03:35.141Z,7.99
2023-12-30T09:04:35.207Z,7.94
2023-12-30T09:05:35.161Z,7.94
2023-12-30T09:06:35.203Z,8.06
2023-12-30T09:07:35.223Z,7.94
2023-12-30T09:08:35.072Z,7.96
2023-12-30T09:09:35.054Z,8.05
2023-12-30T09:10:35.140Z,7.99
2023-12-30T09:11:35.038Z,7.94
2023-12-30T09:12:35.039Z,8.02
2023-12-30T09:13:35.039Z,8.04
2023-12-30T09:14:35.000Z,7.99
2023-12-30T09:15:35.019Z,7.98
2023-12-30T09:16:35.040Z,8.02
2023-12-30T09:17:35.097Z,8.01
2023-12-30T09:18:35.086Z,8.02
2023-12-30T09:19:35.051Z,8.10
2023-12-30T09:20:34.944Z,8.05
2023-12-30T09:21:34.974Z,8.09
2023-12-30T09:22:34.984Z,8.12
2023-12-30T09:23:34.944Z,8.10
2023-12-30T09:24:34.917Z,8.19
2023-12-30T09:25:35.051Z,8.17
2023-12-30T09:26:34.880Z,8.10
2023-12-30T09:27:34.866Z,8.19
2023-12-30T09:28:35.054Z,8.21
2023-12-30T09:29:34.837Z,8.24
2023-12-30T09:30:34.897Z,8.28
2023-12-30T09:31:34.920Z,8.35
2023-12-30T09:32:34.874Z,8.31
2023-12-30T09:33:34.872Z,8.31
2023-12-30T09:34:41.695Z,8.31
2023-12-30T09:35:35.842Z,8.38
2023-12-30T09:36:34.795Z,8.32
2023-12-30T09:37:34.813Z,8.31
2023-12-30T09:38:34.782Z,8.38
2023-12-30T09:39:34.731Z,8.37
2023-12-30T09:40:34.744Z,8.39
2023-12-30T09:41:34.745Z,8.42
2023-12-30T09:42:34.716Z,8.44
2023-12-30T09:43:34.756Z,8.44
2023-12-30T09:44:34.684Z,8.42
2023-12-30T09:45:34.671Z,8.44
2023-12-30T09:46:34.774Z,8.50
2023-12-30T09:47:34.731Z,8.47
2023-12-30T09:48:34.725Z,8.39
2023-12-30T09:49:34.671Z,8.47
2023-12-30T09:50:34.615Z,8.44
2023-12-30T09:51:34.629Z,8.55
2023-12-30T09:52:34.639Z,8.60
2023-12-30T09:53:34.591Z,8.55
2023-12-30T09:54:43.003Z,8.56
2023-12-30T09:55:35.674Z,8.47
2023-12-30T09:56:34.677Z,8.53
2023-12-30T09:57:34.562Z,8.65
2023-12-30T09:58:34.614Z,8.57
2023-12-30T09:59:34.516Z,8.59
2023-12-30T10:00:34.534Z,8.57
2023-12-30T10:01:36.155Z,8.70
2023-12-30T10:02:34.513Z,8.67
2023-12-30T10:03:34.640Z,8.70
2023-12-30T10:04:34.637Z,8.67
2023-12-30T10:05:34.516Z,8.72
2023-12-30T10:06:34.469Z,8.72
2023-12-30T10:07:34.472Z,8.68
2023-12-30T10:08:34.416Z,8.81
2023-12-30T10:09:34.427Z,8.77
2023-12-30T10:10:34.564Z,8.77
2023-12-30T10:11:34.387Z,8.85
2023-12-30T10:12:34.396Z,8.81
2023-12-30T10:13:34.422Z,8.75
2023-12-30T10:14:34.348Z,8.88
2023-12-30T10:15:34.350Z,8.80
2023-12-30T10:16:34.423Z,8.77
2023-12-30T10:17:34.422Z,8.78
2023-12-30T10:18:34.527Z,8.75
2023-12-30T10:19:34.350Z,8.80
2023-12-30T10:20:34.303Z,8.80
2023-12-30T10:21:34.279Z,8.88
2023-12-30T10:22:34.363Z,8.80
2023-12-30T10:23:34.298Z,8.88
2023-12-30T10:24:34.236Z,8.90
2023-12-30T10:25:34.473Z,8.86
2023-12-30T10:26:34.240Z,8.90
2023-12-30T10:27:34.222Z,8.89
2023-12-30T10:28:34.273Z,8.95
2023-12-30T10:29:46.083Z,8.90
2023-12-30T10:30:35.239Z,8.90
2023-12-30T10:31:34.238Z,8.86
2023-12-30T10:32:34.275Z,8.89
2023-12-30T10:33:34.387Z,8.89
2023-12-30T10:34:34.258Z,8.95
2023-12-30T10:35:34.125Z,8.85
2023-12-30T10:36:34.114Z,9.06
2023-12-30T10:37:34.175Z,9.08
2023-12-30T10:38:34.110Z,9.03
2023-12-30T10:39:34.143Z,8.98
2023-12-30T10:40:34.098Z,9.06
2023-12-30T10:41:34.088Z,8.96
2023-12-30T10:42:34.080Z,8.96
2023-12-30T10:43:34.129Z,8.98
2023-12-30T10:44:34.049Z,8.99
2023-12-30T10:45:34.050Z,9.03
2023-12-30T10:46:34.017Z,8.99
2023-12-30T10:47:34.025Z,9.09
2023-12-30T10:48:33.984Z,9.09
2023-12-30T10:49:34.052Z,9.09
2023-12-30T10:50:34.083Z,9.08
2023-12-30T10:51:33.955Z,9.14
2023-12-30T10:52:33.983Z,9.09
2023-12-30T10:53:33.933Z,9.14
2023-12-30T10:54:33.967Z,9.08
2023-12-30T10:55:34.017Z,9.11
2023-12-30T10:56:33.961Z,9.06
2023-12-30T10:57:33.892Z,9.15
2023-12-30T10:58:34.081Z,9.09
2023-12-30T10:59:33.876Z,9.11
2023-12-30T11:00:33.986Z,9.09
2023-12-30T11:01:33.945Z,9.12
2023-12-30T11:02:33.830Z,9.08
2023-12-30T11:03:33.854Z,9.14
2023-12-30T11:04:33.835Z,9.08
2023-12-30T11:05:33.940Z,9.08
2023-12-30T11:06:33.990Z,9.11
2023-12-30T11:07:33.840Z,9.19
2023-12-30T11:08:33.769Z,9.12
2023-12-30T11:09:33.763Z,9.15
2023-12-30T11:10:33.773Z,9.09
2023-12-30T11:11:33.775Z,9.14
2023-12-30T11:12:33.796Z,9.08
2023-12-30T11:13:33.771Z,9.14
2023-12-30T11:14:33.868Z,9.09
2023-12-30T11:15:33.712Z,9.19
2023-12-30T11:16:33.801Z,9.22
2023-12-30T11:17:33.686Z,9.11
2023-12-30T11:18:33.695Z,9.08
2023-12-30T11:19:34.029Z,9.22
2023-12-30T11:20:33.667Z,9.19
2023-12-30T11:21:33.690Z,9.18
2023-12-30T11:22:33.639Z,9.18
2023-12-30T11:23:33.605Z,9.19
2023-12-30T11:24:33.604Z,9.09
2023-12-30T11:25:33.641Z,9.16
2023-12-30T11:26:33.583Z,9.22
2023-12-30T11:27:33.562Z,9.23
2023-12-30T11:28:33.589Z,9.15
2023-12-30T11:29:33.539Z,9.22
2023-12-30T11:30:33.684Z,9.32
2023-12-30T11:31:33.604Z,9.32
2023-12-30T11:32:33.540Z,9.26
2023-12-30T11:33:33.591Z,9.30
2023-12-30T11:34:33.517Z,9.29
2023-12-30T11:35:33.518Z,9.32
2023-12-30T11:36:33.505Z,9.37
2023-12-30T11:37:33.518Z,9.36
2023-12-30T11:38:33.522Z,9.29
2023-12-30T11:39:33.469Z,9.29
2023-12-30T11:40:33.504Z,9.33
2023-12-30T11:41:33.438Z,9.36
2023-12-30T11:42:37.830Z,9.34
2023-12-30T11:43:34.395Z,9.36
2023-12-30T11:44:33.378Z,9.34
2023-12-30T11:45:33.373Z,9.33
2023-12-30T11:46:33.568Z,9.32
2023-12-30T11:47:33.433Z,9.37
2023-12-30T11:48:33.467Z,9.47
2023-12-30T11:49:33.353Z,9.45
2023-12-30T11:50:33.321Z,9.45
2023-12-30T11:51:33.338Z,9.47
2023-12-30T11:52:33.400Z,9.45
2023-12-30T11:53:33.289Z,9.51
2023-12-30T11:54:33.325Z,9.59
2023-12-30T11:55:33.300Z,9.54
2023-12-30T11:56:33.353Z,9.54
2023-12-30T11:57:33.243Z,9.54
2023-12-30T11:58:33.292Z,9.62
2023-12-30T11:59:33.221Z,9.40
2023-12-30T12:00:33.253Z,9.41
2023-12-30T12:01:33.274Z,9.50
2023-12-30T12:02:33.211Z,9.57
2023-12-30T12:03:33.233Z,9.52
2023-12-30T12:04:33.352Z,9.48
2023-12-30T12:05:33.266Z,9.48
2023-12-30T12:06:33.199Z,9.45
2023-12-30T12:07:33.165Z,9.59
2023-12-30T12:08:33.137Z,9.41
2023-12-30T12:09:33.146Z,9.51
2023-12-30T12:10:33.145Z,9.52
2023-12-30T12:11:33.097Z,9.45
2023-12-30T12:12:33.086Z,9.42
2023-12-30T12:13:33.178Z,9.51
2023-12-30T12:14:33.077Z,9.52
2023-12-30T12:15:33.116Z,9.55
2023-12-30T12:16:33.274Z,9.48
2023-12-30T12:17:33.234Z,9.42
2023-12-30T12:18:33.250Z,9.42
2023-12-30T12:19:33.094Z,9.52
2023-12-30T12:20:32.992Z,9.41
2023-12-30T12:21:32.984Z,9.44
2023-12-30T12:22:33.006Z,9.55
2023-12-30T12:23:32.978Z,9.54
2023-12-30T12:24:32.955Z,9.51
2023-12-30T12:25:33.024Z,9.57
2023-12-30T12:26:33.371Z,9.54
2023-12-30T12:27:32.919Z,9.62
2023-12-30T12:28:32.930Z,9.55
2023-12-30T12:29:32.937Z,9.40
2023-12-30T12:30:32.918Z,9.57
2023-12-30T12:31:33.024Z,9.52
2023-12-30T12:32:33.672Z,9.54
2023-12-30T12:33:32.933Z,9.57
2023-12-30T12:34:33.033Z,9.59
2023-12-30T12:35:32.852Z,9.60
2023-12-30T12:36:32.830Z,9.55
2023-12-30T12:37:32.901Z,9.69
2023-12-30T12:38:32.798Z,9.63
2023-12-30T12:39:32.791Z,9.66
2023-12-30T12:40:32.841Z,9.55
2023-12-30T12:41:32.776Z,9.63
2023-12-30T12:42:32.755Z,9.59
2023-12-30T12:43:32.802Z,9.59
2023-12-30T12:44:32.744Z,9.52
2023-12-30T12:45:32.799Z,9.57
2023-12-30T12:46:32.748Z,9.54
2023-12-30T12:47:32.799Z,9.63
2023-12-30T12:48:32.844Z,9.59
2023-12-30T12:49:32.744Z,9.57
2023-12-30T12:50:32.892Z,9.63
2023-12-30T12:51:32.685Z,9.57
2023-12-30T12:52:32.712Z,9.63
2023-12-30T12:53:32.675Z,9.67
2023-12-30T12:54:32.627Z,9.67
2023-12-30T12:55:32.706Z,9.60
2023-12-30T12:56:32.626Z,9.60
2023-12-30T12:57:32.616Z,9.65
2023-12-30T12:58:32.624Z,9.66
2023-12-30T12:59:32.603Z,9.60
2023-12-30T13:00:33.060Z,9.69
2023-12-30T13:01:32.649Z,9.70
2023-12-30T13:02:32.542Z,9.77
2023-12-30T13:03:32.587Z,9.72
2023-12-30T13:04:32.538Z,9.72
2023-12-30T13:05:32.531Z,9.80
2023-12-30T13:06:32.539Z,9.80
2023-12-30T13:07:32.538Z,9.78
2023-12-30T13:08:34.533Z,9.80
2023-12-30T13:09:32.469Z,9.84
2023-12-30T13:10:32.544Z,9.81
2023-12-30T13:11:32.480Z,9.85
2023-12-30T13:12:32.430Z,9.88
2023-12-30T13:13:32.433Z,9.85
2023-12-30T13:14:32.438Z,9.83
2023-12-30T13:15:32.404Z,9.88
2023-12-30T13:16:32.458Z,9.88
2023-12-30T13:17:32.437Z,9.88
2023-12-30T13:18:32.462Z,9.87